createdAt,value
2023-05-05T00:01:03.673Z,12.33
2023-05-05T00:03:32.676Z,11.83
2023-05-05T00:06:01.424Z,10.10
2023-05-05T00:08:30.127Z,10.73
2023-05-05T00:10:58.736Z,10.63
2023-05-05T00:13:27.365Z,7.80
2023-05-05T00:15:56.043Z,10.63
2023-05-05T00:18:25.982Z,7.27
2023-05-05T00:20:54.809Z,9.30
2023-05-05T00:23:23.425Z,9.70
2023-05-05T00:25:52.020Z,9.47
2023-05-05T00:28:20.821Z,8.70
2023-05-05T00:30:49.514Z,11.87
2023-05-05T00:33:18.218Z,11.17
2023-05-05T00:35:48.155Z,10.40
2023-05-05T00:38:16.755Z,8.50
2023-05-05T00:40:45.364Z,7.67
2023-05-05T00:43:14.023Z,15.07
2023-05-05T00:45:47.434Z,9.83
2023-05-05T00:48:18.869Z,10.67
2023-05-05T00:50:48.881Z,13.03
2023-05-05T00:53:17.589Z,7.70
2023-05-05T00:55:46.513Z,9.67
2023-05-05T00:58:15.086Z,16.63
2023-05-05T01:00:44.378Z,8.13
2023-05-05T01:03:15.250Z,10.33
2023-05-05T01:05:52.837Z,13.00
2023-05-05T01:08:34.789Z,15.80
2023-05-05T01:11:07.815Z,9.53
2023-05-05T01:13:43.758Z,12.23
2023-05-05T01:16:16.192Z,10.73
2023-05-05T01:18:48.231Z,8.90
2023-05-05T01:21:27.057Z,8.03
2023-05-05T01:24:14.592Z,8.07
2023-05-05T01:27:00.129Z,13.87
2023-05-05T01:29:39.399Z,13.13
2023-05-05T01:32:10.973Z,8.80
2023-05-05T01:34:45.388Z,8.27
2023-05-05T01:37:19.442Z,10.10
2023-05-05T01:39:51.264Z,7.33
2023-05-05T01:42:20.509Z,10.03
2023-05-05T01:44:49.426Z,15.60
2023-05-05T01:47:20.758Z,10.23
2023-05-05T01:49:49.848Z,9.03
2023-05-05T01:52:18.857Z,14.40
2023-05-05T01:54:48.099Z,9.07
2023-05-05T01:57:16.950Z,10.63
2023-05-05T01:59:45.620Z,10.60
2023-05-05T02:02:15.704Z,9.10
2023-05-05T02:04:46.446Z,9.40
2023-05-05T02:07:15.192Z,9.87
2023-05-05T02:09:45.140Z,9.07
2023-05-05T02:12:13.951Z,12.30
2023-05-05T02:14:43.753Z,11.00
2023-05-05T02:17:12.554Z,8.57
2023-05-05T02:19:44.317Z,10.10
2023-05-05T02:22:16.452Z,11.43
2023-05-05T02:24:45.416Z,8.00
2023-05-05T02:27:17.379Z,15.03
2023-05-05T02:29:49.352Z,11.33
2023-05-05T02:32:19.967Z,9.27
2023-05-05T02:34:50.664Z,10.33
2023-05-05T02:37:25.237Z,8.97
2023-05-05T02:39:58.756Z,9.80
2023-05-05T02:42:30.404Z,11.37
2023-05-05T02:45:00.593Z,14.03
2023-05-05T02:47:32.789Z,10.27
2023-05-05T02:50:01.438Z,13.63
2023-05-05T02:52:31.507Z,11.07
2023-05-05T02:55:00.545Z,9.40
2023-05-05T02:57:33.640Z,10.10
2023-05-05T03:00:07.178Z,12.20
2023-05-05T03:02:44.724Z,13.23
2023-05-05T03:05:18.765Z,12.00
2023-05-05T03:07:55.863Z,10.30
2023-05-05T03:10:30.149Z,10.53
2023-05-05T03:13:00.313Z,9.23
2023-05-05T03:15:32.575Z,14.13
2023-05-05T03:18:01.649Z,7.70
2023-05-05T03:20:30.731Z,10.17
2023-05-05T03:23:02.063Z,9.20
2023-05-05T03:25:44.034Z,10.10
2023-05-05T03:28:12.676Z,10.00
2023-05-05T03:30:41.446Z,10.73
2023-05-05T03:33:11.453Z,16.47
2023-05-05T03:35:40.110Z,9.87
2023-05-05T03:38:10.142Z,8.90
2023-05-05T03:40:44.089Z,7.20
2023-05-05T03:43:13.389Z,10.00
2023-05-05T03:45:42.104Z,7.83
2023-05-05T03:48:10.753Z,9.73
2023-05-05T03:50:39.301Z,12.60
2023-05-05T03:53:07.903Z,9.30
2023-05-05T03:55:37.917Z,12.67
2023-05-05T03:58:06.664Z,12.83
2023-05-05T04:00:35.308Z,11.90
2023-05-05T04:03:04.077Z,9.90
2023-05-05T04:05:32.790Z,11.70
2023-05-05T04:08:01.474Z,9.60
2023-05-05T04:10:30.624Z,12.63
2023-05-05T04:13:00.660Z,12.40
2023-05-05T04:15:29.281Z,11.87
2023-05-05T04:17:57.941Z,13.53
2023-05-05T04:20:26.581Z,11.50
2023-05-05T04:22:55.173Z,12.17
2023-05-05T04:25:23.732Z,12.40
2023-05-05T04:27:52.290Z,12.40
2023-05-05T04:30:22.333Z,11.50
2023-05-05T04:32:51.009Z,13.03
2023-05-05T04:35:19.658Z,9.97
2023-05-05T04:37:48.628Z,11.63
2023-05-05T04:40:17.431Z,10.43
2023-05-05T04:42:46.269Z,17.63
2023-05-05T04:45:14.833Z,9.60
2023-05-05T04:47:44.900Z,11.03
2023-05-05T04:50:14.242Z,11.00
2023-05-05T04:52:42.845Z,10.43
2023-05-05T04:55:11.701Z,15.20
2023-05-05T04:57:40.394Z,9.47
2023-05-05T05:00:10.329Z,11.63
2023-05-05T05:02:39.173Z,14.97
2023-05-05T05:05:10.690Z,10.53
2023-05-05T05:07:39.324Z,13.20
2023-05-05T05:10:09.141Z,13.73
2023-05-05T05:12:38.342Z,12.40
2023-05-05T05:15:08.236Z,10.07
2023-05-05T05:17:36.976Z,13.90
2023-05-05T05:20:07.202Z,10.60
2023-05-05T05:22:38.744Z,21.93
2023-05-05T05:25:07.814Z,19.47
2023-05-05T05:27:36.495Z,11.90
2023-05-05T05:30:05.516Z,17.60
2023-05-05T05:32:34.254Z,10.30
2023-05-05T05:35:02.891Z,17.43
2023-05-05T05:37:31.825Z,9.03
2023-05-05T05:40:01.874Z,12.97
2023-05-05T05:42:30.458Z,12.00
2023-05-05T05:44:59.481Z,17.70
2023-05-05T05:47:28.195Z,15.67
2023-05-05T05:49:56.758Z,17.93
2023-05-05T05:52:25.406Z,11.73
2023-05-05T05:54:53.977Z,9.80
2023-05-05T05:57:24.550Z,11.47
2023-05-05T05:59:53.844Z,9.70
2023-05-05T06:02:22.527Z,11.70
2023-05-05T06:04:51.598Z,12.30
2023-05-05T06:07:20.249Z,16.20
2023-05-05T06:09:48.992Z,11.87
2023-05-05T06:12:17.700Z,16.20
2023-05-05T06:14:47.699Z,11.93
2023-05-05T06:17:16.370Z,12.47
2023-05-05T06:19:44.976Z,24.00
2023-05-05T06:22:13.629Z,11.60
2023-05-05T06:24:42.210Z,15.07
2023-05-05T06:27:10.989Z,13.47
2023-05-05T06:29:39.624Z,9.77
2023-05-05T06:32:09.606Z,14.50
2023-05-05T06:34:38.272Z,15.70
2023-05-05T06:37:06.920Z,10.37
2023-05-05T06:39:35.514Z,9.00
2023-05-05T06:42:04.164Z,10.70
2023-05-05T06:44:34.511Z,8.23
2023-05-05T06:47:03.264Z,11.73
2023-05-05T06:49:33.379Z,8.57
2023-05-05T06:52:02.095Z,7.90
2023-05-05T06:54:30.800Z,9.80
2023-05-05T06:56:59.669Z,10.43
2023-05-05T06:59:28.510Z,10.40
2023-05-05T07:01:57.172Z,9.60
2023-05-05T07:04:26.753Z,8.50
2023-05-05T07:06:58.305Z,12.03
2023-05-05T07:09:26.935Z,10.10
2023-05-05T07:11:55.556Z,10.73
2023-05-05T07:14:24.597Z,12.53
2023-05-05T07:16:53.280Z,7.77
2023-05-05T07:19:22.300Z,12.50
2023-05-05T07:21:51.847Z,7.17
2023-05-05T07:24:21.815Z,8.77
2023-05-05T07:26:50.445Z,7.70
2023-05-05T07:29:19.051Z,9.63
2023-05-05T07:31:47.753Z,14.10
2023-05-05T07:34:16.457Z,12.17
2023-05-05T07:36:45.373Z,16.00
2023-05-05T07:39:15.233Z,8.20
2023-05-05T07:41:45.358Z,8.90
2023-05-05T07:44:14.050Z,12.97
2023-05-05T07:46:42.665Z,11.20
2023-05-05T07:49:11.423Z,10.47
2023-05-05T07:51:40.080Z,10.60
2023-05-05T07:54:08.823Z,14.03
2023-05-05T07:56:37.450Z,10.60
2023-05-05T07:59:07.383Z,11.73
2023-05-05T08:01:36.158Z,15.00
2023-05-05T08:04:04.985Z,7.80
2023-05-05T08:06:33.730Z,9.23
2023-05-05T08:09:02.491Z,16.43
2023-05-05T08:11:31.145Z,7.90
2023-05-05T08:13:59.838Z,7.50
2023-05-05T08:16:29.932Z,9.60
2023-05-05T08:18:58.633Z,6.63
2023-05-05T08:21:27.676Z,9.93
2023-05-05T08:23:56.542Z,5.80
2023-05-05T08:26:25.351Z,6.23
2023-05-05T08:28:56.755Z,13.77
2023-05-05T08:31:25.488Z,10.77
2023-05-05T08:33:55.800Z,7.53
2023-05-05T08:36:24.654Z,7.63
2023-05-05T08:38:53.412Z,7.40
2023-05-05T08:41:22.126Z,9.57
2023-05-05T08:43:50.750Z,5.00
2023-05-05T08:46:19.602Z,3.80
2023-05-05T08:48:49.571Z,4.53
2023-05-05T08:51:20.829Z,3.50
2023-05-05T08:53:55.290Z,3.03
2023-05-05T08:56:27.155Z,5.27
2023-05-05T08:58:57.700Z,2.93
2023-05-05T09:01:26.769Z,3.07
2023-05-05T09:03:56.350Z,3.80
2023-05-05T09:06:27.579Z,2.43
2023-05-05T09:08:58.265Z,6.10
2023-05-05T09:11:28.259Z,2.83
2023-05-05T09:13:56.937Z,2.83
2023-05-05T09:16:25.674Z,3.93
2023-05-05T09:19:02.638Z,3.58
2023-05-05T09:21:33.398Z,6.80
2023-05-05T09:24:08.620Z,3.10
2023-05-05T09:26:39.102Z,5.20
2023-05-05T09:29:08.041Z,7.13
2023-05-05T09:31:37.914Z,5.37
2023-05-05T09:34:16.267Z,3.30
2023-05-05T09:36:48.861Z,5.30
2023-05-05T09:39:19.099Z,5.07
2023-05-05T09:41:48.020Z,5.60
2023-05-05T09:44:16.946Z,5.03
2023-05-05T09:46:51.471Z,4.70
2023-05-05T09:49:25.305Z,3.00
2023-05-05T09:51:55.911Z,3.20
2023-05-05T09:54:25.991Z,9.00
2023-05-05T09:56:54.921Z,5.37
2023-05-05T09:59:24.103Z,3.50
2023-05-05T10:01:53.237Z,3.30
2023-05-05T10:04:26.541Z,2.60
2023-05-05T10:06:57.652Z,6.33
2023-05-05T10:09:27.184Z,2.90
2023-05-05T10:11:57.534Z,1.80
2023-05-05T10:14:26.865Z,3.67
2023-05-05T10:16:56.310Z,3.73
2023-05-05T10:19:25.608Z,4.57
2023-05-05T10:21:55.917Z,4.43
2023-05-05T10:24:34.591Z,2.90
2023-05-05T10:27:03.711Z,3.00
2023-05-05T10:29:39.096Z,3.40
2023-05-05T10:32:40.579Z,3.67
2023-05-05T10:35:04.038Z,3.47
2023-05-05T10:37:32.746Z,7.17
2023-05-05T10:40:03.472Z,3.33
2023-05-05T10:42:32.760Z,2.70
2023-05-05T10:45:01.476Z,2.27
2023-05-05T10:47:30.652Z,6.90
2023-05-05T10:50:03.930Z,1.97
2023-05-05T10:52:37.427Z,1.80
2023-05-05T10:55:14.250Z,7.03
2023-05-05T10:57:44.050Z,2.17
2023-05-05T11:00:52.734Z,2.73
2023-05-05T11:03:23.168Z,5.10
2023-05-05T11:06:12.570Z,1.73
2023-05-05T11:08:43.589Z,3.33
2023-05-05T11:11:14.013Z,2.00
2023-05-05T11:13:42.786Z,1.50
2023-05-05T11:16:55.034Z,4.37
2023-05-05T11:19:45.734Z,2.80
2023-05-05T11:22:15.310Z,2.80
2023-05-05T11:24:44.767Z,2.10
2023-05-05T11:27:14.823Z,1.93
2023-05-05T11:30:09.500Z,1.83
2023-05-05T11:32:38.333Z,2.20
2023-05-05T11:35:07.745Z,6.03
2023-05-05T11:37:37.817Z,3.90
2023-05-05T11:40:16.670Z,1.70
2023-05-05T11:42:47.049Z,5.27
2023-05-05T11:45:23.193Z,1.70
2023-05-05T11:47:51.889Z,2.53
2023-05-05T11:50:23.022Z,1.93
2023-05-05T11:52:51.936Z,1.73
2023-05-05T11:55:22.878Z,3.13
2023-05-05T11:57:52.844Z,2.87
2023-05-05T12:00:21.794Z,1.70
2023-05-05T12:02:57.975Z,1.83
2023-05-05T12:05:26.786Z,1.73
2023-05-05T12:07:59.495Z,8.60
2023-05-05T12:10:28.790Z,2.73
2023-05-05T12:12:58.829Z,3.10
2023-05-05T12:15:31.913Z,3.50
2023-05-05T12:18:02.614Z,4.97
2023-05-05T12:20:33.677Z,1.40
2023-05-05T12:23:06.173Z,2.70
2023-05-05T12:25:38.940Z,3.47
2023-05-05T12:28:09.692Z,3.50
2023-05-05T12:30:38.460Z,4.60
2023-05-05T12:33:08.354Z,1.57
2023-05-05T12:35:37.086Z,2.57
2023-05-05T12:38:05.771Z,4.87
2023-05-05T12:40:45.071Z,2.67
2023-05-05T12:43:31.121Z,2.60
2023-05-05T12:46:07.234Z,1.80
2023-05-05T12:48:37.892Z,4.60
2023-05-05T12:51:17.226Z,2.13
2023-05-05T12:53:46.685Z,10.67
2023-05-05T12:56:37.535Z,1.43
2023-05-05T12:59:08.554Z,4.27
2023-05-05T13:01:38.321Z,1.60
2023-05-05T13:04:11.905Z,2.13
2023-05-05T13:06:41.388Z,4.00
2023-05-05T13:09:10.930Z,6.50
2023-05-05T13:11:40.134Z,2.40
2023-05-05T13:14:10.124Z,1.97
2023-05-05T13:16:38.797Z,9.17
2023-05-05T13:19:07.384Z,5.07
2023-05-05T13:21:36.160Z,1.93
2023-05-05T13:24:21.466Z,3.87
2023-05-05T13:26:54.021Z,1.70
2023-05-05T13:29:27.876Z,2.57
2023-05-05T13:31:59.185Z,2.97
2023-05-05T13:34:28.192Z,5.53
2023-05-05T13:36:57.126Z,1.67
2023-05-05T13:39:25.872Z,12.60
2023-05-05T13:41:54.741Z,1.57
2023-05-05T13:44:24.758Z,2.10
2023-05-05T13:46:53.477Z,1.90
2023-05-05T13:49:22.088Z,3.70
2023-05-05T13:51:50.808Z,2.30
2023-05-05T13:54:19.509Z,1.80
2023-05-05T13:56:48.199Z,2.00
2023-05-05T13:59:16.900Z,2.13
2023-05-05T14:01:46.899Z,1.50
2023-05-05T14:04:15.702Z,6.03
2023-05-05T14:06:44.390Z,3.23
2023-05-05T14:09:13.217Z,2.43
2023-05-05T14:11:42.057Z,4.53
2023-05-05T14:14:10.688Z,2.70
2023-05-05T14:16:39.335Z,6.73
2023-05-05T14:19:09.419Z,3.90
2023-05-05T14:21:38.120Z,4.47
2023-05-05T14:24:07.408Z,1.37
2023-05-05T14:26:36.081Z,4.80
2023-05-05T14:29:04.808Z,5.67
2023-05-05T14:31:33.531Z,2.93
2023-05-05T14:34:02.194Z,3.43
2023-05-05T14:36:32.205Z,1.53
2023-05-05T14:39:00.836Z,1.87
2023-05-05T14:41:29.453Z,3.10
2023-05-05T14:43:59.184Z,2.13
2023-05-05T14:46:28.087Z,2.83
2023-05-05T14:48:56.794Z,3.83
2023-05-05T14:51:25.544Z,2.53
2023-05-05T14:53:55.611Z,2.30
2023-05-05T14:56:24.798Z,2.43
2023-05-05T14:58:53.564Z,5.10
2023-05-05T15:01:22.236Z,3.10
2023-05-05T15:03:52.009Z,2.40
2023-05-05T15:06:21.499Z,5.30
2023-05-05T15:08:50.175Z,4.40
2023-05-05T15:11:20.316Z,2.23
2023-05-05T15:13:49.006Z,3.43
2023-05-05T15:16:17.618Z,2.20
2023-05-05T15:18:46.606Z,3.90
2023-05-05T15:21:15.621Z,2.63
2023-05-05T15:23:44.518Z,3.07
2023-05-05T15:26:13.285Z,4.03
2023-05-05T15:28:43.350Z,3.90
2023-05-05T15:31:11.969Z,1.80
2023-05-05T15:33:40.607Z,2.80
2023-05-05T15:36:10.378Z,2.70
2023-05-05T15:38:42.366Z,2.00
2023-05-05T15:41:11.074Z,2.30
2023-05-05T15:43:39.679Z,2.43
2023-05-05T15:46:09.714Z,2.40
2023-05-05T15:48:38.387Z,1.97
2023-05-05T15:51:07.021Z,3.03
2023-05-05T15:53:36.010Z,2.70
2023-05-05T15:56:08.193Z,2.47
2023-05-05T15:58:37.176Z,3.93
2023-05-05T16:01:05.883Z,3.03
2023-05-05T16:03:36.024Z,4.47
2023-05-05T16:06:04.865Z,5.00
2023-05-05T16:08:33.529Z,3.47
2023-05-05T16:11:02.341Z,3.50
2023-05-05T16:13:31.050Z,3.43
2023-05-05T16:15:59.638Z,5.30
2023-05-05T16:18:28.234Z,6.60
2023-05-05T16:20:58.317Z,6.23
2023-05-05T16:23:26.882Z,11.03
2023-05-05T16:25:55.551Z,4.20
2023-05-05T16:28:24.154Z,6.40
2023-05-05T16:30:52.811Z,7.60
2023-05-05T16:33:21.477Z,6.50
2023-05-05T16:35:50.134Z,6.73
2023-05-05T16:38:20.139Z,4.27
2023-05-05T16:40:48.756Z,5.90
2023-05-05T16:43:17.342Z,13.03
2023-05-05T16:45:46.565Z,10.40
2023-05-05T16:48:17.423Z,9.27
2023-05-05T16:50:46.537Z,13.40
2023-05-05T16:53:15.160Z,8.80
2023-05-05T16:55:45.159Z,7.10
2023-05-05T16:58:13.790Z,10.93
2023-05-05T17:00:45.673Z,13.00
2023-05-05T17:03:14.245Z,12.03
2023-05-05T17:05:43.150Z,10.37
2023-05-05T17:08:14.439Z,10.90
2023-05-05T17:10:43.384Z,10.70
2023-05-05T17:13:14.582Z,6.40
2023-05-05T17:15:44.196Z,15.50
2023-05-05T17:18:12.820Z,11.97
2023-05-05T17:20:41.414Z,7.83
2023-05-05T17:23:10.088Z,7.33
2023-05-05T17:25:38.767Z,8.07
2023-05-05T17:28:07.450Z,11.90
2023-05-05T17:30:37.821Z,9.90
2023-05-05T17:33:06.532Z,13.13
2023-05-05T17:35:35.298Z,13.23
2023-05-05T17:38:03.948Z,11.37
2023-05-05T17:40:32.608Z,11.50
2023-05-05T17:43:01.267Z,14.90
2023-05-05T17:45:29.960Z,8.90
2023-05-05T17:47:59.971Z,5.33
2023-05-05T17:50:28.615Z,4.30
2023-05-05T17:52:57.277Z,6.93
2023-05-05T17:55:26.243Z,4.10
2023-05-05T17:57:55.823Z,4.80
2023-05-05T18:00:24.689Z,3.87
2023-05-05T18:02:53.524Z,5.40
2023-05-05T18:05:23.862Z,4.77
2023-05-05T18:07:52.505Z,3.97
2023-05-05T18:10:21.168Z,4.30
2023-05-05T18:12:49.972Z,5.00
2023-05-05T18:15:18.569Z,3.97
2023-05-05T18:17:47.179Z,3.77
2023-05-05T18:20:16.123Z,2.90
2023-05-05T18:22:46.613Z,1.67
2023-05-05T18:25:15.268Z,2.47
2023-05-05T18:27:44.422Z,2.43
2023-05-05T18:30:13.694Z,4.60
2023-05-05T18:32:42.294Z,4.00
2023-05-05T18:35:11.283Z,2.37
2023-05-05T18:37:41.375Z,2.73
2023-05-05T18:40:12.284Z,3.30
2023-05-05T18:42:41.524Z,3.17
2023-05-05T18:45:11.841Z,2.90
2023-05-05T18:47:41.429Z,2.80
2023-05-05T18:50:10.563Z,2.80
2023-05-05T18:52:39.212Z,1.90
2023-05-05T18:55:08.433Z,2.40
2023-05-05T18:57:38.619Z,3.07
2023-05-05T19:00:08.607Z,4.27
2023-05-05T19:02:37.422Z,2.97
2023-05-05T19:05:07.269Z,7.37
2023-05-05T19:07:36.644Z,4.33
2023-05-05T19:10:06.102Z,4.07
2023-05-05T19:12:34.875Z,5.53
2023-05-05T19:15:05.530Z,2.67
2023-05-05T19:17:34.214Z,9.73
2023-05-05T19:20:02.979Z,2.70
2023-05-05T19:22:31.712Z,9.17
2023-05-05T19:25:00.367Z,5.53
2023-05-05T19:27:28.983Z,5.60
2023-05-05T19:29:57.625Z,5.17
2023-05-05T19:32:27.645Z,5.17
2023-05-05T19:34:56.465Z,4.60
2023-05-05T19:37:25.300Z,4.27
2023-05-05T19:39:54.134Z,5.70
2023-05-05T19:42:22.747Z,5.33
2023-05-05T19:44:51.337Z,3.73
2023-05-05T19:47:19.975Z,4.00
2023-05-05T19:49:49.898Z,5.10
2023-05-05T19:52:18.528Z,4.70
2023-05-05T19:54:47.168Z,4.93
2023-05-05T19:57:16.377Z,5.20
2023-05-05T19:59:45.014Z,4.50
2023-05-05T20:02:15.349Z,4.90
2023-05-05T20:04:44.091Z,7.60
2023-05-05T20:07:15.633Z,5.70
2023-05-05T20:09:44.853Z,4.70
2023-05-05T20:12:13.654Z,11.10
2023-05-05T20:14:42.660Z,4.33
2023-05-05T20:17:11.834Z,4.50
2023-05-05T20:19:40.443Z,7.07
2023-05-05T20:22:09.127Z,4.80
2023-05-05T20:24:39.164Z,6.60
2023-05-05T20:27:08.022Z,4.80
2023-05-05T20:29:36.667Z,4.63
2023-05-05T20:32:06.703Z,7.20
2023-05-05T20:34:35.558Z,7.60
2023-05-05T20:37:04.281Z,5.10
2023-05-05T20:39:33.023Z,7.57
2023-05-05T20:42:03.539Z,7.10
2023-05-05T20:44:32.148Z,6.47
2023-05-05T20:47:00.887Z,3.77
2023-05-05T20:49:29.544Z,19.23
2023-05-05T20:51:59.162Z,6.20
2023-05-05T20:54:32.676Z,7.77
2023-05-05T20:57:02.915Z,5.07
2023-05-05T20:59:32.129Z,5.00
2023-05-05T21:02:00.998Z,6.90
2023-05-05T21:04:29.690Z,5.53
2023-05-05T21:06:58.314Z,7.70
2023-05-05T21:09:27.058Z,6.93
2023-05-05T21:11:55.809Z,5.80
2023-05-05T21:14:25.820Z,5.17
2023-05-05T21:16:54.553Z,6.00
2023-05-05T21:19:23.283Z,5.47
2023-05-05T21:21:52.626Z,5.47
2023-05-05T21:24:21.471Z,6.50
2023-05-05T21:26:50.226Z,6.07
2023-05-05T21:29:18.856Z,9.13
2023-05-05T21:31:48.942Z,4.60
2023-05-05T21:34:18.338Z,5.23
2023-05-05T21:36:47.013Z,7.13
2023-05-05T21:39:15.669Z,6.00
2023-05-05T21:41:44.300Z,9.27
2023-05-05T21:44:13.324Z,5.07
2023-05-05T21:46:42.020Z,7.43
2023-05-05T21:49:16.058Z,7.00
2023-05-05T21:51:45.673Z,6.90
2023-05-05T21:54:14.251Z,7.77
2023-05-05T21:56:42.908Z,7.53
2023-05-05T21:59:11.522Z,8.57
2023-05-05T22:01:40.333Z,7.40
2023-05-05T22:04:09.222Z,8.20
2023-05-05T22:06:39.156Z,7.97
2023-05-05T22:09:07.788Z,7.43
2023-05-05T22:11:36.507Z,7.93
2023-05-05T22:14:05.140Z,7.10
2023-05-05T22:16:33.873Z,5.03
2023-05-05T22:19:02.531Z,6.80
2023-05-05T22:21:31.496Z,7.23
2023-05-05T22:24:01.503Z,15.57
2023-05-05T22:26:30.111Z,10.57
2023-05-05T22:28:58.719Z,8.23
2023-05-05T22:31:27.363Z,5.93
2023-05-05T22:33:56.060Z,7.70
2023-05-05T22:36:24.814Z,8.37
2023-05-05T22:38:53.401Z,7.90
2023-05-05T22:41:23.496Z,6.83
2023-05-05T22:43:52.093Z,10.50
2023-05-05T22:46:20.698Z,9.20
2023-05-05T22:48:49.333Z,6.97
2023-05-05T22:51:18.794Z,6.27
2023-05-05T22:53:47.401Z,5.40
2023-05-05T22:56:16.402Z,9.10
2023-05-05T22:58:47.342Z,8.30
2023-05-05T23:01:16.133Z,8.73
2023-05-05T23:03:44.847Z,6.30
2023-05-05T23:06:13.477Z,8.10
2023-05-05T23:08:42.712Z,13.67
2023-05-05T23:11:11.408Z,7.90
2023-05-05T23:13:39.995Z,9.13
2023-05-05T23:16:10.002Z,8.50
2023-05-05T23:18:38.773Z,9.20
2023-05-05T23:21:07.588Z,8.27
2023-05-05T23:23:36.197Z,7.30
2023-05-05T23:26:04.851Z,6.97
2023-05-05T23:28:33.478Z,11.13
2023-05-05T23:31:02.222Z,7.57
2023-05-05T23:33:32.199Z,7.50
2023-05-05T23:36:00.794Z,7.90
2023-05-05T23:38:29.455Z,16.43
2023-05-05T23:40:58.039Z,10.77
2023-05-05T23:43:26.635Z,8.53
2023-05-05T23:45:55.327Z,8.57
2023-05-05T23:48:24.243Z,8.60
2023-05-05T23:50:54.597Z,13.40
2023-05-05T23:53:23.215Z,10.33
2023-05-05T23:55:51.819Z,10.70
2023-05-05T23:58:20.900Z,13.80
